sensor_id;sensor_type;location;lat;lon;timestamp;temperature;humidity
34646;DHT22;20857;47.808;12.482;2022-08-19T00:00:24;18.40;99.90
34646;DHT22;20857;47.808;12.482;2022-08-19T00:02:50;18.30;99.90
34646;DHT22;20857;47.808;12.482;2022-08-19T00:05:16;18.20;99.90
34646;DHT22;20857;47.808;12.482;2022-08-19T00:07:43;18.00;99.90
34646;DHT22;20857;47.808;12.482;2022-08-19T00:10:12;17.90;99.90
34646;DHT22;20857;47.808;12.482;2022-08-19T00:12:38;17.80;99.90
34646;DHT22;20857;47.808;12.482;2022-08-19T00:15:06;17.80;99.90
34646;DHT22;20857;47.808;12.482;2022-08-19T00:17:32;17.80;99.90
34646;DHT22;20857;47.808;12.482;2022-08-19T00:19:58;17.80;99.90
34646;DHT22;20857;47.808;12.482;2022-08-19T00:22:23;17.80;99.90
34646;DHT22;20857;47.808;12.482;2022-08-19T00:24:49;17.80;99.90
34646;DHT22;20857;47.808;12.482;2022-08-19T00:27:15;17.80;99.90
34646;DHT22;20857;47.808;12.482;2022-08-19T00:29:41;17.80;99.90
34646;DHT22;20857;47.808;12.482;2022-08-19T00:32:09;17.80;99.90
34646;DHT22;20857;47.808;12.482;2022-08-19T00:34:36;17.80;99.90
34646;DHT22;20857;47.808;12.482;2022-08-19T00:37:01;17.90;99.90
34646;DHT22;20857;47.808;12.482;2022-08-19T00:39:27;18.00;99.90
34646;DHT22;20857;47.808;12.482;2022-08-19T00:41:52;18.00;99.90
34646;DHT22;20857;47.808;12.482;2022-08-19T00:44:24;18.00;99.90
34646;DHT22;20857;47.808;12.482;2022-08-19T00:46:52;18.00;99.90
34646;DHT22;20857;47.808;12.482;2022-08-19T00:49:25;18.10;99.90
34646;DHT22;20857;47.808;12.482;2022-08-19T00:52:12;18.10;99.90
34646;DHT22;20857;47.808;12.482;2022-08-19T00:54:40;18.10;99.90
34646;DHT22;20857;47.808;12.482;2022-08-19T00:57:09;18.00;99.90
34646;DHT22;20857;47.808;12.482;2022-08-19T00:59:37;18.00;99.90
34646;DHT22;20857;47.808;12.482;2022-08-19T01:02:04;18.00;99.90
34646;DHT22;20857;47.808;12.482;2022-08-19T01:04:29;17.90;99.90
34646;DHT22;20857;47.808;12.482;2022-08-19T01:06:55;18.00;99.90
34646;DHT22;20857;47.808;12.482;2022-08-19T01:09:21;18.00;99.90
34646;DHT22;20857;47.808;12.482;2022-08-19T01:11:47;17.90;99.90
34646;DHT22;20857;47.808;12.482;2022-08-19T01:14:13;17.90;99.90
34646;DHT22;20857;47.808;12.482;2022-08-19T01:16:41;18.00;99.90
34646;DHT22;20857;47.808;12.482;2022-08-19T01:19:18;17.90;99.90
34646;DHT22;20857;47.808;12.482;2022-08-19T01:22:08;17.90;99.90
34646;DHT22;20857;47.808;12.482;2022-08-19T01:24:36;17.90;99.90
34646;DHT22;20857;47.808;12.482;2022-08-19T01:27:04;17.90;99.90
34646;DHT22;20857;47.808;12.482;2022-08-19T01:29:30;17.90;99.90
34646;DHT22;20857;47.808;12.482;2022-08-19T01:31:56;17.90;99.90
34646;DHT22;20857;47.808;12.482;2022-08-19T01:34:22;18.00;99.90
34646;DHT22;20857;47.808;12.482;2022-08-19T01:36:48;18.00;99.90
34646;DHT22;20857;47.808;12.482;2022-08-19T01:39:21;18.00;99.90
34646;DHT22;20857;47.808;12.482;2022-08-19T01:41:48;18.00;99.90
34646;DHT22;20857;47.808;12.482;2022-08-19T01:44:14;18.00;99.90
34646;DHT22;20857;47.808;12.482;2022-08-19T01:46:42;18.00;99.90
34646;DHT22;20857;47.808;12.482;2022-08-19T01:49:09;18.00;99.90
34646;DHT22;20857;47.808;12.482;2022-08-19T01:51:35;18.10;99.90
34646;DHT22;20857;47.808;12.482;2022-08-19T01:54:01;18.10;99.90
34646;DHT22;20857;47.808;12.482;2022-08-19T01:56:26;18.20;99.90
34646;DHT22;20857;47.808;12.482;2022-08-19T01:59:14;18.20;99.90
34646;DHT22;20857;47.808;12.482;2022-08-19T02:01:41;18.20;99.90
34646;DHT22;20857;47.808;12.482;2022-08-19T02:04:07;18.30;99.90
34646;DHT22;20857;47.808;12.482;2022-08-19T02:06:32;18.30;99.90
34646;DHT22;20857;47.808;12.482;2022-08-19T02:08:58;18.40;99.90
34646;DHT22;20857;47.808;12.482;2022-08-19T02:11:27;18.50;99.90
34646;DHT22;20857;47.808;12.482;2022-08-19T02:13:54;18.50;99.90
34646;DHT22;20857;47.808;12.482;2022-08-19T02:16:20;18.50;99.90
34646;DHT22;20857;47.808;12.482;2022-08-19T02:18:46;18.50;99.90
34646;DHT22;20857;47.808;12.482;2022-08-19T02:21:15;18.50;99.90
34646;DHT22;20857;47.808;12.482;2022-08-19T02:23:41;18.50;99.90
34646;DHT22;20857;47.808;12.482;2022-08-19T02:26:07;18.50;99.90
34646;DHT22;20857;47.808;12.482;2022-08-19T02:28:33;18.50;99.90
34646;DHT22;20857;47.808;12.482;2022-08-19T02:30:59;18.50;99.90
34646;DHT22;20857;47.808;12.482;2022-08-19T02:33:26;18.50;99.90
34646;DHT22;20857;47.808;12.482;2022-08-19T02:35:52;18.50;99.90
34646;DHT22;20857;47.808;12.482;2022-08-19T02:38:18;18.60;99.90
34646;DHT22;20857;47.808;12.482;2022-08-19T02:40:59;18.60;99.90
34646;DHT22;20857;47.808;12.482;2022-08-19T02:43:26;18.70;99.90
34646;DHT22;20857;47.808;12.482;2022-08-19T02:45:53;18.80;99.90
34646;DHT22;20857;47.808;12.482;2022-08-19T02:48:20;18.80;99.90
34646;DHT22;20857;47.808;12.482;2022-08-19T02:50:47;18.80;99.90
34646;DHT22;20857;47.808;12.482;2022-08-19T02:53:13;18.70;99.90
34646;DHT22;20857;47.808;12.482;2022-08-19T02:55:44;18.70;99.90
34646;DHT22;20857;47.808;12.482;2022-08-19T02:58:11;18.60;99.90
34646;DHT22;20857;47.808;12.482;2022-08-19T03:00:44;18.60;99.90
34646;DHT22;20857;47.808;12.482;2022-08-19T03:03:11;18.60;99.90
34646;DHT22;20857;47.808;12.482;2022-08-19T03:05:37;18.60;99.90
34646;DHT22;20857;47.808;12.482;2022-08-19T03:08:02;18.60;99.90
34646;DHT22;20857;47.808;12.482;2022-08-19T03:10:29;18.50;99.90
34646;DHT22;20857;47.808;12.482;2022-08-19T03:12:55;18.50;99.90
34646;DHT22;20857;47.808;12.482;2022-08-19T03:15:20;18.50;99.90
34646;DHT22;20857;47.808;12.482;2022-08-19T03:17:46;18.50;99.90
34646;DHT22;20857;47.808;12.482;2022-08-19T03:20:11;18.50;99.90
34646;DHT22;20857;47.808;12.482;2022-08-19T03:22:37;18.50;99.90
34646;DHT22;20857;47.808;12.482;2022-08-19T03:25:03;18.60;99.90
34646;DHT22;20857;47.808;12.482;2022-08-19T03:27:29;18.60;99.90
34646;DHT22;20857;47.808;12.482;2022-08-19T03:29:55;18.60;99.90
34646;DHT22;20857;47.808;12.482;2022-08-19T03:32:20;18.60;99.90
34646;DHT22;20857;47.808;12.482;2022-08-19T03:34:47;18.60;99.90
34646;DHT22;20857;47.808;12.482;2022-08-19T03:37:13;18.60;99.90
34646;DHT22;20857;47.808;12.482;2022-08-19T03:39:39;18.60;99.90
34646;DHT22;20857;47.808;12.482;2022-08-19T03:42:06;18.60;99.90
34646;DHT22;20857;47.808;12.482;2022-08-19T03:44:32;18.60;99.90
34646;DHT22;20857;47.808;12.482;2022-08-19T03:47:03;18.60;99.90
34646;DHT22;20857;47.808;12.482;2022-08-19T03:49:30;18.70;99.90
34646;DHT22;20857;47.808;12.482;2022-08-19T03:51:58;18.60;99.90
34646;DHT22;20857;47.808;12.482;2022-08-19T03:54:26;18.60;99.90
34646;DHT22;20857;47.808;12.482;2022-08-19T03:56:55;18.60;99.90
34646;DHT22;20857;47.808;12.482;2022-08-19T03:59:28;18.50;99.90
34646;DHT22;20857;47.808;12.482;2022-08-19T04:02:00;18.60;99.90
34646;DHT22;20857;47.808;12.482;2022-08-19T04:04:26;18.50;99.90
34646;DHT22;20857;47.808;12.482;2022-08-19T04:06:52;18.60;99.90
34646;DHT22;20857;47.808;12.482;2022-08-19T04:09:18;18.60;99.90
34646;DHT22;20857;47.808;12.482;2022-08-19T04:11:54;18.50;99.90
34646;DHT22;20857;47.808;12.482;2022-08-19T04:14:22;18.50;99.90
34646;DHT22;20857;47.808;12.482;2022-08-19T04:16:49;18.40;99.90
34646;DHT22;20857;47.808;12.482;2022-08-19T04:19:16;18.30;99.90
34646;DHT22;20857;47.808;12.482;2022-08-19T04:21:46;18.30;99.90
34646;DHT22;20857;47.808;12.482;2022-08-19T04:24:13;18.20;99.90
34646;DHT22;20857;47.808;12.482;2022-08-19T04:26:39;18.20;99.90
34646;DHT22;20857;47.808;12.482;2022-08-19T04:29:07;18.10;99.90
34646;DHT22;20857;47.808;12.482;2022-08-19T04:31:33;18.10;99.90
34646;DHT22;20857;47.808;12.482;2022-08-19T04:34:05;18.10;99.90
34646;DHT22;20857;47.808;12.482;2022-08-19T04:36:34;18.00;99.90
34646;DHT22;20857;47.808;12.482;2022-08-19T04:39:03;18.00;99.90
34646;DHT22;20857;47.808;12.482;2022-08-19T04:41:29;18.00;99.90
34646;DHT22;20857;47.808;12.482;2022-08-19T04:44:13;17.90;99.90
34646;DHT22;20857;47.808;12.482;2022-08-19T04:46:39;18.00;99.90
34646;DHT22;20857;47.808;12.482;2022-08-19T04:49:06;18.00;99.90
34646;DHT22;20857;47.808;12.482;2022-08-19T04:51:34;18.00;99.90
34646;DHT22;20857;47.808;12.482;2022-08-19T04:54:01;17.90;99.90
34646;DHT22;20857;47.808;12.482;2022-08-19T04:56:27;17.90;99.90
34646;DHT22;20857;47.808;12.482;2022-08-19T04:58:54;17.90;99.90
34646;DHT22;20857;47.808;12.482;2022-08-19T05:01:26;17.90;99.90
34646;DHT22;20857;47.808;12.482;2022-08-19T05:03:52;17.90;99.90
34646;DHT22;20857;47.808;12.482;2022-08-19T05:06:21;17.90;99.90
34646;DHT22;20857;47.808;12.482;2022-08-19T05:08:47;17.90;99.90
34646;DHT22;20857;47.808;12.482;2022-08-19T05:11:24;17.90;99.90
34646;DHT22;20857;47.808;12.482;2022-08-19T05:13:51;17.90;99.90
34646;DHT22;20857;47.808;12.482;2022-08-19T05:16:19;17.90;99.90
34646;DHT22;20857;47.808;12.482;2022-08-19T05:18:46;18.00;99.90
34646;DHT22;20857;47.808;12.482;2022-08-19T05:21:31;18.00;99.90
34646;DHT22;20857;47.808;12.482;2022-08-19T05:24:16;18.10;99.90
34646;DHT22;20857;47.808;12.482;2022-08-19T05:26:44;18.20;99.90
34646;DHT22;20857;47.808;12.482;2022-08-19T05:29:14;18.30;99.90
34646;DHT22;20857;47.808;12.482;2022-08-19T05:31:41;18.30;99.90
34646;DHT22;20857;47.808;12.482;2022-08-19T05:34:06;18.40;99.90
34646;DHT22;20857;47.808;12.482;2022-08-19T05:36:41;18.20;99.90
34646;DHT22;20857;47.808;12.482;2022-08-19T05:39:10;18.20;99.90
34646;DHT22;20857;47.808;12.482;2022-08-19T05:41:36;18.20;99.90
34646;DHT22;20857;47.808;12.482;2022-08-19T05:44:05;18.20;99.90
34646;DHT22;20857;47.808;12.482;2022-08-19T05:46:34;18.20;99.90
34646;DHT22;20857;47.808;12.482;2022-08-19T05:49:00;18.20;99.90
34646;DHT22;20857;47.808;12.482;2022-08-19T05:51:26;18.20;99.90
34646;DHT22;20857;47.808;12.482;2022-08-19T05:53:52;18.20;99.90
34646;DHT22;20857;47.808;12.482;2022-08-19T05:56:18;18.20;99.90
34646;DHT22;20857;47.808;12.482;2022-08-19T05:58:44;18.10;99.90
34646;DHT22;20857;47.808;12.482;2022-08-19T06:01:13;18.10;99.90
34646;DHT22;20857;47.808;12.482;2022-08-19T06:03:39;18.10;99.90
34646;DHT22;20857;47.808;12.482;2022-08-19T06:06:07;18.10;99.90
34646;DHT22;20857;47.808;12.482;2022-08-19T06:08:33;18.00;99.90
34646;DHT22;20857;47.808;12.482;2022-08-19T06:11:12;18.00;99.90
34646;DHT22;20857;47.808;12.482;2022-08-19T06:13:38;17.90;99.90
34646;DHT22;20857;47.808;12.482;2022-08-19T06:16:04;17.80;99.90
34646;DHT22;20857;47.808;12.482;2022-08-19T06:18:30;17.80;99.90
34646;DHT22;20857;47.808;12.482;2022-08-19T06:20:55;17.70;99.90
34646;DHT22;20857;47.808;12.482;2022-08-19T06:23:21;17.80;99.90
34646;DHT22;20857;47.808;12.482;2022-08-19T06:25:47;17.80;99.90
34646;DHT22;20857;47.808;12.482;2022-08-19T06:28:12;17.80;99.90
34646;DHT22;20857;47.808;12.482;2022-08-19T06:30:38;17.70;99.90
34646;DHT22;20857;47.808;12.482;2022-08-19T06:33:04;17.70;99.90
34646;DHT22;20857;47.808;12.482;2022-08-19T06:35:30;17.90;99.90
34646;DHT22;20857;47.808;12.482;2022-08-19T06:37:56;18.00;99.90
34646;DHT22;20857;47.808;12.482;2022-08-19T06:40:22;18.10;99.90
34646;DHT22;20857;47.808;12.482;2022-08-19T06:42:48;18.00;99.90
34646;DHT22;20857;47.808;12.482;2022-08-19T06:45:14;18.00;99.90
34646;DHT22;20857;47.808;12.482;2022-08-19T06:47:40;18.10;99.90
34646;DHT22;20857;47.808;12.482;2022-08-19T06:50:09;18.30;99.90
34646;DHT22;20857;47.808;12.482;2022-08-19T06:52:35;18.40;99.90
34646;DHT22;20857;47.808;12.482;2022-08-19T06:55:01;18.50;99.90
34646;DHT22;20857;47.808;12.482;2022-08-19T06:57:27;18.60;99.90
34646;DHT22;20857;47.808;12.482;2022-08-19T06:59:58;18.90;99.90
34646;DHT22;20857;47.808;12.482;2022-08-19T07:02:25;19.10;99.90
34646;DHT22;20857;47.808;12.482;2022-08-19T07:04:52;19.30;99.90
34646;DHT22;20857;47.808;12.482;2022-08-19T07:07:19;19.30;99.90
34646;DHT22;20857;47.808;12.482;2022-08-19T07:09:46;19.50;99.90
34646;DHT22;20857;47.808;12.482;2022-08-19T07:12:13;19.70;99.90
34646;DHT22;20857;47.808;12.482;2022-08-19T07:14:42;19.80;99.90
34646;DHT22;20857;47.808;12.482;2022-08-19T07:17:10;20.10;99.90
34646;DHT22;20857;47.808;12.482;2022-08-19T07:19:37;20.00;99.90
34646;DHT22;20857;47.808;12.482;2022-08-19T07:22:05;20.10;99.90
34646;DHT22;20857;47.808;12.482;2022-08-19T07:24:31;20.10;99.90
34646;DHT22;20857;47.808;12.482;2022-08-19T07:26:59;20.10;99.90
34646;DHT22;20857;47.808;12.482;2022-08-19T07:29:28;20.20;99.90
34646;DHT22;20857;47.808;12.482;2022-08-19T07:31:55;20.30;99.90
34646;DHT22;20857;47.808;12.482;2022-08-19T07:34:22;20.30;99.90
34646;DHT22;20857;47.808;12.482;2022-08-19T07:36:49;20.20;99.90
34646;DHT22;20857;47.808;12.482;2022-08-19T07:39:22;20.30;99.90
34646;DHT22;20857;47.808;12.482;2022-08-19T07:41:48;20.50;99.90
34646;DHT22;20857;47.808;12.482;2022-08-19T07:44:14;20.70;99.90
34646;DHT22;20857;47.808;12.482;2022-08-19T07:46:43;21.10;99.90
34646;DHT22;20857;47.808;12.482;2022-08-19T07:49:13;21.20;99.90
34646;DHT22;20857;47.808;12.482;2022-08-19T07:51:47;21.30;99.90
34646;DHT22;20857;47.808;12.482;2022-08-19T07:54:13;21.40;99.90
34646;DHT22;20857;47.808;12.482;2022-08-19T07:56:39;21.30;99.90
34646;DHT22;20857;47.808;12.482;2022-08-19T07:59:05;21.00;99.90
34646;DHT22;20857;47.808;12.482;2022-08-19T08:01:31;21.00;99.90
34646;DHT22;20857;47.808;12.482;2022-08-19T08:03:57;20.80;99.90
34646;DHT22;20857;47.808;12.482;2022-08-19T08:06:42;20.80;99.90
34646;DHT22;20857;47.808;12.482;2022-08-19T08:09:33;20.70;99.90
34646;DHT22;20857;47.808;12.482;2022-08-19T08:12:05;20.60;99.90
34646;DHT22;20857;47.808;12.482;2022-08-19T08:14:47;20.80;99.90
34646;DHT22;20857;47.808;12.482;2022-08-19T08:17:15;21.00;99.90
34646;DHT22;20857;47.808;12.482;2022-08-19T08:19:41;21.30;99.90
34646;DHT22;20857;47.808;12.482;2022-08-19T08:22:08;21.20;99.90
34646;DHT22;20857;47.808;12.482;2022-08-19T08:24:55;21.00;99.90
34646;DHT22;20857;47.808;12.482;2022-08-19T08:27:23;21.20;99.90
34646;DHT22;20857;47.808;12.482;2022-08-19T08:29:49;21.10;99.90
34646;DHT22;20857;47.808;12.482;2022-08-19T08:32:15;21.30;99.90
34646;DHT22;20857;47.808;12.482;2022-08-19T08:34:41;21.30;99.90
34646;DHT22;20857;47.808;12.482;2022-08-19T08:37:07;21.10;99.90
34646;DHT22;20857;47.808;12.482;2022-08-19T08:39:32;20.90;99.90
34646;DHT22;20857;47.808;12.482;2022-08-19T08:42:08;20.90;99.90
34646;DHT22;20857;47.808;12.482;2022-08-19T08:44:48;21.00;99.90
34646;DHT22;20857;47.808;12.482;2022-08-19T08:47:18;21.20;99.90
34646;DHT22;20857;47.808;12.482;2022-08-19T08:49:50;20.90;99.90
34646;DHT22;20857;47.808;12.482;2022-08-19T08:52:21;20.90;99.90
34646;DHT22;20857;47.808;12.482;2022-08-19T08:54:50;20.50;99.90
34646;DHT22;20857;47.808;12.482;2022-08-19T08:57:49;20.60;99.90
34646;DHT22;20857;47.808;12.482;2022-08-19T09:02:48;20.60;99.90
34646;DHT22;20857;47.808;12.482;2022-08-19T09:05:13;20.70;99.90
34646;DHT22;20857;47.808;12.482;2022-08-19T09:07:50;20.90;99.90
34646;DHT22;20857;47.808;12.482;2022-08-19T09:15:32;21.20;99.90
34646;DHT22;20857;47.808;12.482;2022-08-19T09:18:01;21.30;99.90
34646;DHT22;20857;47.808;12.482;2022-08-19T09:20:27;21.50;99.90
34646;DHT22;20857;47.808;12.482;2022-08-19T09:22:53;21.80;99.90
34646;DHT22;20857;47.808;12.482;2022-08-19T09:25:21;21.90;99.90
34646;DHT22;20857;47.808;12.482;2022-08-19T09:27:51;21.70;99.90
34646;DHT22;20857;47.808;12.482;2022-08-19T09:30:24;21.90;99.90
34646;DHT22;20857;47.808;12.482;2022-08-19T09:32:51;22.10;99.90
34646;DHT22;20857;47.808;12.482;2022-08-19T09:35:24;21.80;99.90
34646;DHT22;20857;47.808;12.482;2022-08-19T09:37:50;22.00;99.90
34646;DHT22;20857;47.808;12.482;2022-08-19T09:40:17;22.40;99.90
34646;DHT22;20857;47.808;12.482;2022-08-19T09:42:44;22.50;99.90
34646;DHT22;20857;47.808;12.482;2022-08-19T09:45:11;22.20;99.90
34646;DHT22;20857;47.808;12.482;2022-08-19T09:47:37;22.30;99.90
34646;DHT22;20857;47.808;12.482;2022-08-19T09:50:07;22.60;99.90
34646;DHT22;20857;47.808;12.482;2022-08-19T09:52:33;22.60;99.90
34646;DHT22;20857;47.808;12.482;2022-08-19T09:55:03;22.70;99.90
34646;DHT22;20857;47.808;12.482;2022-08-19T09:57:29;22.50;99.90
34646;DHT22;20857;47.808;12.482;2022-08-19T09:59:54;22.40;99.90
34646;DHT22;20857;47.808;12.482;2022-08-19T10:02:20;21.90;99.90
34646;DHT22;20857;47.808;12.482;2022-08-19T10:04:46;22.20;99.90
34646;DHT22;20857;47.808;12.482;2022-08-19T10:07:30;22.20;99.90
34646;DHT22;20857;47.808;12.482;2022-08-19T10:09:56;22.00;99.90
34646;DHT22;20857;47.808;12.482;2022-08-19T10:12:22;21.60;99.90
34646;DHT22;20857;47.808;12.482;2022-08-19T10:14:48;21.10;99.90
34646;DHT22;20857;47.808;12.482;2022-08-19T10:17:13;20.80;99.90
34646;DHT22;20857;47.808;12.482;2022-08-19T10:19:40;20.90;99.90
34646;DHT22;20857;47.808;12.482;2022-08-19T10:22:06;21.00;99.90
34646;DHT22;20857;47.808;12.482;2022-08-19T10:24:33;21.20;99.90
34646;DHT22;20857;47.808;12.482;2022-08-19T10:27:00;21.20;99.90
34646;DHT22;20857;47.808;12.482;2022-08-19T10:29:29;21.10;99.90
34646;DHT22;20857;47.808;12.482;2022-08-19T10:31:54;21.20;99.90
34646;DHT22;20857;47.808;12.482;2022-08-19T10:34:21;21.40;99.90
34646;DHT22;20857;47.808;12.482;2022-08-19T10:36:47;21.70;99.90
34646;DHT22;20857;47.808;12.482;2022-08-19T10:39:13;21.80;99.90
34646;DHT22;20857;47.808;12.482;2022-08-19T10:41:39;21.70;99.90
34646;DHT22;20857;47.808;12.482;2022-08-19T10:44:07;21.50;99.90
34646;DHT22;20857;47.808;12.482;2022-08-19T10:46:37;21.40;99.90
34646;DHT22;20857;47.808;12.482;2022-08-19T10:49:04;21.60;99.90
34646;DHT22;20857;47.808;12.482;2022-08-19T10:51:31;21.70;99.90
34646;DHT22;20857;47.808;12.482;2022-08-19T10:54:16;21.90;99.90
34646;DHT22;20857;47.808;12.482;2022-08-19T10:56:41;22.20;99.90
34646;DHT22;20857;47.808;12.482;2022-08-19T10:59:18;22.80;99.90
34646;DHT22;20857;47.808;12.482;2022-08-19T11:01:45;23.30;99.90
34646;DHT22;20857;47.808;12.482;2022-08-19T11:04:11;23.20;99.90
34646;DHT22;20857;47.808;12.482;2022-08-19T11:06:42;23.00;99.90
34646;DHT22;20857;47.808;12.482;2022-08-19T11:09:09;23.00;99.90
34646;DHT22;20857;47.808;12.482;2022-08-19T11:11:37;23.40;99.90
34646;DHT22;20857;47.808;12.482;2022-08-19T11:14:07;23.50;99.90
34646;DHT22;20857;47.808;12.482;2022-08-19T11:16:33;23.30;99.90
34646;DHT22;20857;47.808;12.482;2022-08-19T11:18:59;23.30;99.90
34646;DHT22;20857;47.808;12.482;2022-08-19T11:21:27;22.90;99.90
34646;DHT22;20857;47.808;12.482;2022-08-19T11:23:56;22.80;99.90
34646;DHT22;20857;47.808;12.482;2022-08-19T11:26:22;22.80;99.90
34646;DHT22;20857;47.808;12.482;2022-08-19T11:28:48;22.90;99.90
34646;DHT22;20857;47.808;12.482;2022-08-19T11:31:19;23.20;99.90
34646;DHT22;20857;47.808;12.482;2022-08-19T11:33:46;23.80;99.90
34646;DHT22;20857;47.808;12.482;2022-08-19T11:36:12;24.40;99.90
34646;DHT22;20857;47.808;12.482;2022-08-19T11:38:38;24.30;99.90
34646;DHT22;20857;47.808;12.482;2022-08-19T11:41:07;24.30;99.90
34646;DHT22;20857;47.808;12.482;2022-08-19T11:43:33;24.10;99.90
34646;DHT22;20857;47.808;12.482;2022-08-19T11:45:59;24.20;99.90
34646;DHT22;20857;47.808;12.482;2022-08-19T11:48:28;24.00;99.90
34646;DHT22;20857;47.808;12.482;2022-08-19T11:50:54;23.50;99.90
34646;DHT22;20857;47.808;12.482;2022-08-19T11:53:21;23.70;99.90
34646;DHT22;20857;47.808;12.482;2022-08-19T11:55:47;24.20;99.90
34646;DHT22;20857;47.808;12.482;2022-08-19T11:58:15;24.80;99.90
34646;DHT22;20857;47.808;12.482;2022-08-19T12:00:42;25.40;99.90
34646;DHT22;20857;47.808;12.482;2022-08-19T12:03:11;25.50;99.90
34646;DHT22;20857;47.808;12.482;2022-08-19T12:05:38;25.40;99.90
34646;DHT22;20857;47.808;12.482;2022-08-19T12:08:04;25.20;99.90
34646;DHT22;20857;47.808;12.482;2022-08-19T12:10:29;24.60;99.90
34646;DHT22;20857;47.808;12.482;2022-08-19T12:13:01;24.40;99.90
34646;DHT22;20857;47.808;12.482;2022-08-19T12:15:27;24.30;99.90
34646;DHT22;20857;47.808;12.482;2022-08-19T12:17:55;24.30;99.90
34646;DHT22;20857;47.808;12.482;2022-08-19T12:20:23;24.10;99.90
34646;DHT22;20857;47.808;12.482;2022-08-19T12:22:49;24.00;99.90
34646;DHT22;20857;47.808;12.482;2022-08-19T12:25:15;24.00;99.90
34646;DHT22;20857;47.808;12.482;2022-08-19T12:27:41;23.80;99.90
34646;DHT22;20857;47.808;12.482;2022-08-19T12:30:09;24.40;99.90
34646;DHT22;20857;47.808;12.482;2022-08-19T12:32:35;25.20;99.90
34646;DHT22;20857;47.808;12.482;2022-08-19T12:35:01;25.50;99.90
34646;DHT22;20857;47.808;12.482;2022-08-19T12:37:27;26.20;99.90
34646;DHT22;20857;47.808;12.482;2022-08-19T12:39:53;26.30;99.90
34646;DHT22;20857;47.808;12.482;2022-08-19T12:42:18;26.40;99.90
34646;DHT22;20857;47.808;12.482;2022-08-19T12:44:44;26.70;99.90
34646;DHT22;20857;47.808;12.482;2022-08-19T12:47:12;26.80;99.90
34646;DHT22;20857;47.808;12.482;2022-08-19T12:49:40;26.30;99.90
34646;DHT22;20857;47.808;12.482;2022-08-19T12:52:07;25.80;99.90
34646;DHT22;20857;47.808;12.482;2022-08-19T12:54:34;25.60;99.90
34646;DHT22;20857;47.808;12.482;2022-08-19T12:57:00;25.20;99.90
34646;DHT22;20857;47.808;12.482;2022-08-19T12:59:29;24.90;99.90
34646;DHT22;20857;47.808;12.482;2022-08-19T13:01:55;24.80;99.90
34646;DHT22;20857;47.808;12.482;2022-08-19T13:04:21;24.70;99.90
34646;DHT22;20857;47.808;12.482;2022-08-19T13:06:46;24.80;99.90
34646;DHT22;20857;47.808;12.482;2022-08-19T13:09:12;24.80;99.90
34646;DHT22;20857;47.808;12.482;2022-08-19T13:11:38;25.00;99.90
34646;DHT22;20857;47.808;12.482;2022-08-19T13:14:04;24.90;99.90
34646;DHT22;20857;47.808;12.482;2022-08-19T13:16:30;25.00;99.90
34646;DHT22;20857;47.808;12.482;2022-08-19T13:18:57;24.90;99.90
34646;DHT22;20857;47.808;12.482;2022-08-19T13:21:26;24.50;99.90
34646;DHT22;20857;47.808;12.482;2022-08-19T13:23:53;24.20;99.90
34646;DHT22;20857;47.808;12.482;2022-08-19T13:26:20;24.10;99.90
34646;DHT22;20857;47.808;12.482;2022-08-19T13:28:46;23.90;99.90
34646;DHT22;20857;47.808;12.482;2022-08-19T13:31:33;23.80;99.90
34646;DHT22;20857;47.808;12.482;2022-08-19T13:34:35;23.60;99.90
34646;DHT22;20857;47.808;12.482;2022-08-19T13:37:03;23.40;99.90
34646;DHT22;20857;47.808;12.482;2022-08-19T13:39:30;23.20;99.90
34646;DHT22;20857;47.808;12.482;2022-08-19T13:41:58;23.10;99.90
34646;DHT22;20857;47.808;12.482;2022-08-19T13:44:26;23.10;99.90
34646;DHT22;20857;47.808;12.482;2022-08-19T13:46:59;23.00;99.90
34646;DHT22;20857;47.808;12.482;2022-08-19T13:49:28;23.00;99.90
34646;DHT22;20857;47.808;12.482;2022-08-19T13:51:56;22.90;99.90
34646;DHT22;20857;47.808;12.482;2022-08-19T13:54:21;22.70;99.90
34646;DHT22;20857;47.808;12.482;2022-08-19T13:56:47;22.60;99.90
34646;DHT22;20857;47.808;12.482;2022-08-19T13:59:13;22.50;99.90
34646;DHT22;20857;47.808;12.482;2022-08-19T14:01:39;22.40;99.90
34646;DHT22;20857;47.808;12.482;2022-08-19T14:04:05;22.30;99.90
34646;DHT22;20857;47.808;12.482;2022-08-19T14:06:32;22.20;99.90
34646;DHT22;20857;47.808;12.482;2022-08-19T14:08:58;22.10;99.90
34646;DHT22;20857;47.808;12.482;2022-08-19T14:11:23;21.90;99.90
34646;DHT22;20857;47.808;12.482;2022-08-19T14:13:50;21.70;99.90
34646;DHT22;20857;47.808;12.482;2022-08-19T14:16:16;21.60;99.90
34646;DHT22;20857;47.808;12.482;2022-08-19T14:18:43;21.40;99.90
34646;DHT22;20857;47.808;12.482;2022-08-19T14:21:30;21.20;99.90
34646;DHT22;20857;47.808;12.482;2022-08-19T14:23:56;20.90;99.90
34646;DHT22;20857;47.808;12.482;2022-08-19T14:26:22;20.70;99.90
34646;DHT22;20857;47.808;12.482;2022-08-19T14:28:48;20.60;99.90
34646;DHT22;20857;47.808;12.482;2022-08-19T14:31:16;20.50;99.90
34646;DHT22;20857;47.808;12.482;2022-08-19T14:33:46;20.10;99.90
34646;DHT22;20857;47.808;12.482;2022-08-19T14:36:12;19.60;99.90
34646;DHT22;20857;47.808;12.482;2022-08-19T14:38:38;19.30;99.90
34646;DHT22;20857;47.808;12.482;2022-08-19T14:41:16;19.40;99.90
34646;DHT22;20857;47.808;12.482;2022-08-19T14:43:44;19.40;99.90
34646;DHT22;20857;47.808;12.482;2022-08-19T14:46:15;19.20;99.90
34646;DHT22;20857;47.808;12.482;2022-08-19T14:48:41;19.20;99.90
34646;DHT22;20857;47.808;12.482;2022-08-19T14:51:07;18.80;99.90
34646;DHT22;20857;47.808;12.482;2022-08-19T14:53:33;18.60;99.90
34646;DHT22;20857;47.808;12.482;2022-08-19T14:55:59;18.60;99.90
34646;DHT22;20857;47.808;12.482;2022-08-19T14:58:26;18.60;99.90
34646;DHT22;20857;47.808;12.482;2022-08-19T15:00:52;18.60;99.90
34646;DHT22;20857;47.808;12.482;2022-08-19T15:03:18;18.50;99.90
34646;DHT22;20857;47.808;12.482;2022-08-19T15:05:43;18.30;99.90
34646;DHT22;20857;47.808;12.482;2022-08-19T15:08:09;18.10;99.90
34646;DHT22;20857;47.808;12.482;2022-08-19T15:10:37;17.90;99.90
34646;DHT22;20857;47.808;12.482;2022-08-19T15:13:03;17.30;99.90
34646;DHT22;20857;47.808;12.482;2022-08-19T15:15:28;16.90;99.90
34646;DHT22;20857;47.808;12.482;2022-08-19T15:17:54;16.70;99.90
34646;DHT22;20857;47.808;12.482;2022-08-19T15:20:22;16.60;99.90
34646;DHT22;20857;47.808;12.482;2022-08-19T15:22:49;16.50;99.90
34646;DHT22;20857;47.808;12.482;2022-08-19T15:25:16;16.50;99.90
34646;DHT22;20857;47.808;12.482;2022-08-19T15:27:44;16.50;99.90